Time;durP1;ratioP1;P1;durP2;ratioP2;P2;SDS_P1;SDS_P2;PMS_P1;PMS_P2;Temp;Humidity;BMP_temperature;BMP_pressure;BME280_temperature;BME280_humidity;BME280_pressure;Samples;Min_cycle;Max_cycle;Signal;HPM_P1;HPM_P2
2022/07/13 00:02:11;;;;;;;3.60;2.50;;;;;;;26.23;55.21;101614.31;5098112;28;20044;-80
2022/07/13 00:04:39;;;;;;;5.70;3.00;;;;;;;26.30;55.20;101615.41;5097327;28;20088;-80
2022/07/13 00:07:06;;;;;;;3.45;2.22;;;;;;;26.35;54.84;101613.06;5095963;28;20047;-79
2022/07/13 00:09:34;;;;;;;4.45;2.63;;;;;;;26.41;54.84;101612.41;5096393;28;20407;-79
2022/07/13 00:12:01;;;;;;;4.45;2.53;;;;;;;26.45;54.78;101613.81;5095920;28;20419;-78
2022/07/13 00:14:29;;;;;;;3.30;2.20;;;;;;;26.51;54.52;101617.78;5095608;28;20052;-78
2022/07/13 00:16:56;;;;;;;3.35;2.10;;;;;;;26.54;54.34;101617.47;5093371;28;20053;-78
2022/07/13 00:19:24;;;;;;;3.45;2.35;;;;;;;26.56;54.39;101618.97;5074744;28;20044;-78
2022/07/13 00:21:52;;;;;;;6.60;2.67;;;;;;;26.59;54.24;101615.94;5073949;28;20044;-78
2022/07/13 00:24:20;;;;;;;4.28;2.30;;;;;;;26.62;53.93;101617.50;5084688;28;20048;-78
2022/07/13 00:26:47;;;;;;;2.92;2.35;;;;;;;26.65;54.19;101622.59;5094088;28;20419;-78
2022/07/13 00:29:15;;;;;;;3.53;2.30;;;;;;;26.67;54.13;101620.56;5094250;28;20052;-79
2022/07/13 00:31:43;;;;;;;4.07;2.35;;;;;;;26.67;53.85;101623.28;5094660;28;20044;-79
2022/07/13 00:34:10;;;;;;;3.78;2.58;;;;;;;26.70;53.81;101624.81;5095931;28;20059;-79
2022/07/13 00:36:38;;;;;;;3.58;2.22;;;;;;;26.72;53.93;101630.94;5093103;28;20051;-79
2022/07/13 00:39:06;;;;;;;4.05;2.28;;;;;;;26.72;53.96;101625.53;5092551;28;20055;-79
2022/07/13 00:41:34;;;;;;;3.03;2.13;;;;;;;26.75;53.67;101630.63;5093875;28;20059;-79
2022/07/13 00:44:08;;;;;;;4.35;2.58;;;;;;;26.75;53.71;101627.91;5095538;28;20040;-79
2022/07/13 00:46:36;;;;;;;3.13;2.17;;;;;;;26.77;53.91;101625.88;5092870;28;20502;-79
2022/07/13 00:49:04;;;;;;;5.63;2.22;;;;;;;26.79;53.80;101632.03;5093067;28;20056;-79
2022/07/13 00:51:32;;;;;;;3.17;2.17;;;;;;;26.79;53.81;101632.03;5093112;28;20055;-79
2022/07/13 00:54:01;;;;;;;5.82;2.53;;;;;;;26.80;53.60;101622.84;5093512;28;20465;-79
2022/07/13 00:56:28;;;;;;;5.97;2.55;;;;;;;26.80;53.85;101634.56;5093667;28;20511;-79
2022/07/13 00:58:58;;;;;;;5.18;2.30;;;;;;;26.81;53.81;101633.53;5095718;28;20484;-79
2022/07/13 01:01:26;;;;;;;3.25;2.30;;;;;;;26.82;53.58;101650.72;5094331;28;20059;-79
2022/07/13 01:03:54;;;;;;;3.40;2.05;;;;;;;26.83;53.77;101645.13;5092839;28;20380;-79
2022/07/13 01:06:22;;;;;;;3.10;2.05;;;;;;;26.83;53.79;101646.97;5094851;28;20511;-79
2022/07/13 01:08:49;;;;;;;2.95;2.00;;;;;;;26.83;53.86;101650.53;5093211;28;20052;-79
2022/07/13 01:11:16;;;;;;;3.55;2.20;;;;;;;26.85;53.45;101653.94;5093607;28;20048;-79
2022/07/13 01:13:45;;;;;;;3.70;2.30;;;;;;;26.86;53.56;101660.25;5093177;28;20384;-79
2022/07/13 01:16:12;;;;;;;2.90;1.90;;;;;;;26.87;53.73;101651.06;5094107;28;20039;-79
2022/07/13 01:18:40;;;;;;;4.05;2.45;;;;;;;26.87;53.49;101651.06;5087832;28;20515;-79
2022/07/13 01:21:12;;;;;;;5.18;2.10;;;;;;;26.87;53.90;101651.06;5056931;28;20063;-79
2022/07/13 01:23:39;;;;;;;4.07;2.28;;;;;;;26.87;53.42;101665.50;5073752;28;20055;-79
2022/07/13 01:26:07;;;;;;;2.83;2.15;;;;;;;26.88;53.84;101659.06;5072698;28;20056;-79
2022/07/13 01:28:35;;;;;;;3.97;2.53;;;;;;;26.88;53.58;101653.63;5073337;28;20049;-80
2022/07/13 01:31:03;;;;;;;3.67;2.10;;;;;;;26.90;53.71;101656.19;5056818;28;20407;-80
2022/07/13 01:33:30;;;;;;;2.95;2.50;;;;;;;26.91;54.14;101655.19;5072774;28;20060;-81
2022/07/13 01:35:58;;;;;;;3.10;2.17;;;;;;;26.91;54.06;101652.47;5075211;28;20111;-81
2022/07/13 01:38:28;;;;;;;4.13;2.58;;;;;;;26.92;53.93;101658.75;5083680;28;20056;-81
2022/07/13 01:40:56;;;;;;;4.32;2.42;;;;;;;26.89;53.86;101649.03;5094866;28;20058;-81
2022/07/13 01:43:28;;;;;;;5.53;2.35;;;;;;;26.92;54.12;101658.75;5093004;28;20522;-81
2022/07/13 01:45:55;;;;;;;3.58;2.22;;;;;;;26.92;53.98;101659.59;5094130;28;20052;-80
2022/07/13 01:48:23;;;;;;;3.78;2.38;;;;;;;26.92;53.97;101651.44;5094661;28;20392;-78
2022/07/13 01:50:50;;;;;;;3.13;2.50;;;;;;;26.92;53.82;101656.88;5092268;28;20494;-78
2022/07/13 01:53:18;;;;;;;4.50;2.30;;;;;;;26.92;53.96;101658.75;5094068;28;20507;-78
2022/07/13 01:55:45;;;;;;;4.78;2.40;;;;;;;26.94;53.82;101659.41;5074965;28;20048;-78
2022/07/13 01:58:13;;;;;;;4.15;2.42;;;;;;;26.93;53.91;101655.84;5091351;28;20110;-78
2022/07/13 02:00:40;;;;;;;3.45;2.38;;;;;;;26.94;53.85;101662.13;5091814;28;20048;-78
2022/07/13 02:03:07;;;;;;;3.65;2.50;;;;;;;26.94;53.90;101665.72;5093160;28;20496;-78
2022/07/13 02:05:35;;;;;;;4.10;2.85;;;;;;;26.95;54.07;101663.84;5091217;28;20512;-78
2022/07/13 02:08:05;;;;;;;3.97;2.25;;;;;;;26.95;54.10;101670.13;5092195;28;20044;-79
2022/07/13 02:10:36;;;;;;;4.20;2.47;;;;;;;26.96;54.06;101681.84;5093501;28;20059;-79
2022/07/13 02:13:08;;;;;;;5.13;2.67;;;;;;;26.95;54.08;101674.72;5091777;28;20055;-79
2022/07/13 02:15:35;;;;;;;3.42;2.40;;;;;;;26.95;53.98;101670.13;5093057;28;20289;-78
2022/07/13 02:18:05;;;;;;;2.53;2.00;;;;;;;26.96;54.21;101671.84;5092529;28;20500;-79
2022/07/13 02:20:34;;;;;;;2.72;2.30;;;;;;;26.95;54.17;101678.28;5083155;28;20060;-78
2022/07/13 02:23:01;;;;;;;2.95;2.30;;;;;;;26.96;54.09;101688.13;5073186;28;20423;-79
2022/07/13 02:25:29;;;;;;;3.80;2.53;;;;;;;26.97;54.16;101683.56;5073261;28;20055;-79
2022/07/13 02:27:56;;;;;;;6.53;2.85;;;;;;;26.96;54.42;101682.72;5073211;28;20059;-78
2022/07/13 02:30:24;;;;;;;4.53;2.45;;;;;;;26.96;54.20;101682.72;5070797;28;20053;-78
2022/07/13 02:32:55;;;;;;;4.80;2.70;;;;;;;26.97;54.15;101692.56;5072198;28;20501;-78
2022/07/13 02:35:24;;;;;;;4.55;2.75;;;;;;;26.96;54.27;101681.84;5074861;28;20044;-78
2022/07/13 02:37:52;;;;;;;5.13;2.50;;;;;;;26.96;54.01;101690.84;5078295;28;20060;-79
2022/07/13 02:40:19;;;;;;;2.75;2.08;;;;;;;26.96;54.07;101688.13;5078379;28;20052;-79
2022/07/13 02:42:47;;;;;;;4.28;2.75;;;;;;;26.97;54.48;101689.84;5080105;28;20045;-79
2022/07/13 02:45:14;;;;;;;3.55;2.15;;;;;;;26.97;54.30;101687.13;5079769;28;20044;-79
2022/07/13 02:47:42;;;;;;;4.55;2.97;;;;;;;26.99;54.25;101681.53;5080038;28;20047;-80
2022/07/13 02:50:11;;;;;;;3.30;2.53;;;;;;;26.97;54.64;101689.84;5077778;28;20056;-81
2022/07/13 02:52:38;;;;;;;4.38;2.55;;;;;;;26.98;54.73;101694.28;5078472;28;20453;-80
2022/07/13 02:55:08;;;;;;;3.45;2.22;;;;;;;26.98;54.47;101685.25;5079006;28;20048;-80
2022/07/13 02:57:36;;;;;;;3.83;2.25;;;;;;;26.96;54.47;101688.13;5078583;28;20075;-81
2022/07/13 03:00:07;;;;;;;3.17;2.30;;;;;;;26.97;54.26;101676.25;5078427;28;20407;-81
2022/07/13 03:02:35;;;;;;;2.92;2.33;;;;;;;26.97;54.27;101689.84;5078311;28;20059;-80
2022/07/13 03:05:05;;;;;;;4.18;2.50;;;;;;;26.97;54.45;101683.56;5078270;28;20051;-82
2022/07/13 03:07:33;;;;;;;4.15;2.30;;;;;;;26.97;54.47;101684.41;5078704;28;20492;-79
2022/07/13 03:10:01;;;;;;;6.63;2.83;;;;;;;26.98;54.78;101697.00;5077589;28;20053;-80
2022/07/13 03:12:28;;;;;;;4.43;2.70;;;;;;;26.97;54.53;101692.56;5079516;28;20055;-80
2022/07/13 03:14:56;;;;;;;3.22;2.40;;;;;;;26.95;54.57;101700.03;5078455;28;20408;-80
2022/07/13 03:17:24;;;;;;;4.78;3.15;;;;;;;26.94;54.47;101700.16;5080127;28;20036;-81
2022/07/13 03:19:51;;;;;;;3.38;2.33;;;;;;;26.92;54.59;101694.91;5080034;28;20052;-81
2022/07/13 03:22:19;;;;;;;3.55;2.80;;;;;;;26.91;54.77;101693.22;5093497;28;20052;-81
2022/07/13 03:24:48;;;;;;;4.03;3.10;;;;;;;26.87;54.47;101699.97;5077603;28;20045;-80
2022/07/13 03:27:15;;;;;;;7.75;3.25;;;;;;;26.87;54.71;101699.97;5060888;28;20056;-80
2022/07/13 03:29:43;;;;;;;5.40;3.17;;;;;;;26.86;54.45;101699.13;5078204;28;20067;-80
2022/07/13 03:32:10;;;;;;;6.03;2.67;;;;;;;26.86;54.49;101706.44;5078325;28;20064;-80
2022/07/13 03:34:38;;;;;;;4.85;2.70;;;;;;;26.85;54.71;101708.28;5080480;28;20495;-79
2022/07/13 03:37:07;;;;;;;5.65;2.60;;;;;;;26.85;54.67;101707.44;5078236;28;20048;-80
2022/07/13 03:39:37;;;;;;;4.05;2.95;;;;;;;26.84;54.50;101719.31;5079559;28;20385;-79
2022/07/13 03:42:05;;;;;;;4.07;3.10;;;;;;;26.83;54.78;101715.75;5097297;28;20106;-79
2022/07/13 03:44:33;;;;;;;5.43;3.22;;;;;;;26.84;54.98;101716.59;5097974;28;20048;-79
2022/07/13 03:47:01;;;;;;;4.18;3.20;;;;;;;26.82;54.77;101716.78;5097334;28;20067;-79
2022/07/13 03:49:30;;;;;;;3.95;3.33;;;;;;;26.81;54.83;101717.75;5094697;28;20044;-79
2022/07/13 03:51:57;;;;;;;4.15;3.05;;;;;;;26.81;54.90;101717.75;5094558;28;20052;-79
2022/07/13 03:54:25;;;;;;;4.47;2.55;;;;;;;26.80;54.90;101721.50;5094011;28;20044;-79
2022/07/13 03:56:52;;;;;;;4.13;2.92;;;;;;;26.81;54.80;101725.06;5096042;28;20048;-80
2022/07/13 03:59:20;;;;;;;3.85;3.00;;;;;;;26.80;54.73;101726.09;5077053;28;20055;-80
2022/07/13 04:01:47;;;;;;;3.85;2.78;;;;;;;26.80;54.84;101720.66;5093962;28;20435;-79
2022/07/13 04:04:16;;;;;;;3.20;2.75;;;;;;;26.79;54.84;101725.22;5094662;28;20040;-80
2022/07/13 04:06:45;;;;;;;5.00;2.88;;;;;;;26.79;54.81;101730.66;5094319;28;20048;-79
2022/07/13 04:09:13;;;;;;;4.45;3.08;;;;;;;26.80;54.76;101734.22;5094831;28;20499;-79
2022/07/13 04:11:40;;;;;;;4.25;3.10;;;;;;;26.78;54.69;101730.81;5095484;28;20376;-79
2022/07/13 04:14:08;;;;;;;4.38;3.17;;;;;;;26.79;54.70;101729.81;5096328;28;20056;-79
2022/07/13 04:16:35;;;;;;;3.50;2.65;;;;;;;26.77;55.05;101735.38;5094641;28;20519;-79
2022/07/13 04:19:05;;;;;;;3.65;2.83;;;;;;;26.77;54.75;101735.38;5077952;28;20048;-79
2022/07/13 04:21:34;;;;;;;3.47;2.80;;;;;;;26.77;54.62;101742.69;5089430;28;20061;-79
2022/07/13 04:24:01;;;;;;;4.75;3.22;;;;;;;26.76;54.74;101746.44;5076079;28;20055;-80
2022/07/13 04:26:29;;;;;;;5.13;3.65;;;;;;;26.76;54.67;101746.44;5073946;28;20492;-80
2022/07/13 04:28:57;;;;;;;5.07;2.90;;;;;;;26.77;54.72;101745.41;5073589;28;20408;-79
2022/07/13 04:31:26;;;;;;;3.83;2.83;;;;;;;26.76;54.65;101750.00;5074027;28;20051;-80
2022/07/13 04:33:54;;;;;;;4.70;3.03;;;;;;;26.77;54.66;101754.41;5074055;28;20052;-80
2022/07/13 04:36:24;;;;;;;4.78;2.55;;;;;;;26.76;54.74;101755.44;5073659;28;20052;-80
2022/07/13 04:38:52;;;;;;;4.15;3.03;;;;;;;26.75;54.90;101745.59;5073267;28;20048;-80
2022/07/13 04:41:19;;;;;;;4.47;3.20;;;;;;;26.76;54.87;101763.56;5073734;28;20057;-78
2022/07/13 04:43:48;;;;;;;5.32;2.85;;;;;;;26.76;54.78;101763.56;5074585;28;20053;-78
2022/07/13 04:46:17;;;;;;;4.47;2.67;;;;;;;26.76;54.97;101771.72;5073287;28;20063;-79
2022/07/13 04:48:47;;;;;;;3.70;2.65;;;;;;;26.76;54.96;101765.44;5072997;28;20492;-79
2022/07/13 04:51:14;;;;;;;3.95;3.30;;;;;;;26.76;55.03;101768.16;5074851;28;20048;-80
2022/07/13 04:53:45;;;;;;;5.68;2.70;;;;;;;26.76;54.98;101776.31;5072808;28;20056;-80
2022/07/13 04:56:13;;;;;;;3.55;2.30;;;;;;;26.76;54.87;101771.72;5077743;28;20499;-80
2022/07/13 04:58:41;;;;;;;4.20;2.80;;;;;;;26.76;55.00;101781.75;5092307;28;20044;-80
2022/07/13 05:01:09;;;;;;;5.07;3.00;;;;;;;26.77;55.07;101788.88;5093656;28;20063;-80
2022/07/13 05:03:59;;;;;;;3.10;2.55;;;;;;;26.76;54.91;101779.88;5093395;28;20056;-80
2022/07/13 05:06:27;;;;;;;5.47;3.03;;;;;;;26.76;55.15;101785.31;5093825;28;20059;-80
2022/07/13 05:08:55;;;;;;;4.35;3.15;;;;;;;26.75;55.17;101790.91;5093700;28;20055;-80
2022/07/13 05:11:22;;;;;;;5.18;2.90;;;;;;;26.75;55.30;101788.19;5095037;28;20063;-80
2022/07/13 05:13:50;;;;;;;4.88;3.08;;;;;;;26.74;55.49;101783.75;5093335;28;20055;-81
2022/07/13 05:16:18;;;;;;;5.18;3.45;;;;;;;26.75;55.79;101790.91;5093184;28;20403;-81
2022/07/13 05:18:47;;;;;;;4.68;3.40;;;;;;;26.75;55.87;101790.91;5093165;28;20050;-81
2022/07/13 05:21:25;;;;;;;7.15;3.78;;;;;;;26.74;55.43;101798.22;5093633;28;20052;-81
2022/07/13 05:23:52;;;;;;;6.32;3.15;;;;;;;26.75;55.97;101793.63;5078167;28;20396;-80
2022/07/13 05:26:21;;;;;;;6.47;3.47;;;;;;;26.75;55.63;101793.63;5093129;28;20052;-81
2022/07/13 05:28:48;;;;;;;6.20;3.85;;;;;;;26.75;56.31;101794.47;5093348;28;20075;-81
2022/07/13 05:31:16;;;;;;;4.70;3.38;;;;;;;26.75;56.11;101802.63;5093166;28;20391;-81
2022/07/13 05:33:44;;;;;;;4.93;3.17;;;;;;;26.75;55.79;101799.06;5093170;28;20052;-81
2022/07/13 05:36:19;;;;;;;4.22;3.50;;;;;;;26.74;55.90;101803.66;5093779;28;20059;-81
2022/07/13 05:38:48;;;;;;;4.38;3.38;;;;;;;26.73;56.10;101804.63;5092128;28;20474;-81
2022/07/13 05:41:15;;;;;;;4.88;3.65;;;;;;;26.73;55.88;101804.63;5093744;28;20051;-81
2022/07/13 05:43:42;;;;;;;4.22;3.70;;;;;;;26.73;56.02;101806.50;5092228;28;20055;-81
2022/07/13 05:46:12;;;;;;;4.53;3.05;;;;;;;26.73;55.93;101809.22;5092933;28;20060;-81
2022/07/13 05:48:40;;;;;;;3.65;3.20;;;;;;;26.73;55.88;101814.66;5092883;28;20047;-80
2022/07/13 05:51:07;;;;;;;4.68;3.53;;;;;;;26.72;55.82;101819.25;5092560;28;20059;-80
2022/07/13 05:53:55;;;;;;;5.05;3.42;;;;;;;26.72;56.18;101819.25;5092764;28;20059;-80
2022/07/13 05:56:23;;;;;;;5.53;3.20;;;;;;;26.72;55.95;101815.66;5092995;28;20054;-81
2022/07/13 05:58:51;;;;;;;4.10;3.45;;;;;;;26.72;55.95;101819.25;5094985;28;20344;-81
2022/07/13 06:01:18;;;;;;;4.82;3.38;;;;;;;26.74;56.01;101824.50;5093774;28;20480;-81
2022/07/13 06:03:45;;;;;;;7.30;3.80;;;;;;;26.74;55.73;101825.38;5093874;28;20040;-81
2022/07/13 06:06:13;;;;;;;4.75;2.97;;;;;;;26.75;55.92;101831.66;5093445;28;20044;-82
2022/07/13 06:08:40;;;;;;;5.68;3.33;;;;;;;26.75;55.59;101832.50;5092183;28;20044;-81
2022/07/13 06:11:08;;;;;;;6.25;3.10;;;;;;;26.77;55.62;101833.19;5091608;28;20040;-81
2022/07/13 06:13:35;;;;;;;4.40;2.80;;;;;;;26.79;55.42;101828.47;5093153;28;20399;-80
2022/07/13 06:16:03;;;;;;;4.78;2.80;;;;;;;26.81;55.19;101839.16;5093674;28;20040;-81
2022/07/13 06:18:31;;;;;;;4.32;2.80;;;;;;;26.83;55.13;101832.59;5076049;28;20051;-81
2022/07/13 06:20:58;;;;;;;3.63;2.78;;;;;;;26.83;54.89;101829.88;5093110;28;20056;-80
2022/07/13 06:23:25;;;;;;;5.28;2.75;;;;;;;26.86;55.25;101842.28;5092765;28;20047;-82
2022/07/13 06:25:54;;;;;;;2.90;2.60;;;;;;;26.87;55.17;101846.72;5092728;28;20051;-82
2022/07/13 06:28:21;;;;;;;3.80;2.65;;;;;;;26.87;55.09;101846.72;5093644;28;20048;-81
2022/07/13 06:30:48;;;;;;;4.57;2.45;;;;;;;26.88;55.20;101841.09;5093014;28;20033;-82
2022/07/13 06:33:16;;;;;;;4.93;3.03;;;;;;;26.91;54.62;101844.53;5093034;28;20047;-81
2022/07/13 06:35:43;;;;;;;4.57;2.92;;;;;;;26.91;54.93;101833.66;5091430;28;20048;-80
2022/07/13 06:38:10;;;;;;;3.42;2.55;;;;;;;26.91;55.14;101839.09;5093268;28;20055;-80
2022/07/13 06:40:38;;;;;;;7.75;2.88;;;;;;;26.92;54.88;101841.66;5093462;28;20476;-79
2022/07/13 06:43:05;;;;;;;4.93;2.45;;;;;;;26.92;54.98;101841.66;5093622;28;20051;-80
2022/07/13 06:45:33;;;;;;;4.07;2.65;;;;;;;26.93;54.87;101846.06;5092694;28;20055;-79
2022/07/13 06:48:01;;;;;;;5.57;2.58;;;;;;;26.93;54.93;101842.50;5093220;28;20059;-82
2022/07/13 06:50:28;;;;;;;4.10;2.30;;;;;;;26.94;55.01;101847.78;5074357;28;20492;-82
2022/07/13 06:52:56;;;;;;;3.10;2.40;;;;;;;26.94;54.87;101839.63;5091276;28;20419;-81
2022/07/13 06:55:24;;;;;;;4.30;2.78;;;;;;;26.94;54.92;101839.63;5092798;28;20051;-81
2022/07/13 06:57:51;;;;;;;3.92;2.20;;;;;;;26.96;54.62;101850.34;5092228;28;20052;-80
2022/07/13 07:00:18;;;;;;;3.53;2.90;;;;;;;26.96;54.79;101840.31;5091840;28;20118;-80
2022/07/13 07:02:46;;;;;;;3.92;2.80;;;;;;;26.96;55.09;101848.47;5093423;28;20044;-80
2022/07/13 07:05:14;;;;;;;4.30;2.92;;;;;;;26.97;54.94;101842.00;5093498;28;20048;-80
2022/07/13 07:07:42;;;;;;;4.60;3.03;;;;;;;26.98;54.99;101853.72;5093775;28;20491;-79
2022/07/13 07:10:10;;;;;;;4.10;2.50;;;;;;;26.98;55.13;101843.75;5093405;28;20055;-80
2022/07/13 07:12:38;;;;;;;3.35;2.38;;;;;;;26.97;54.98;101836.59;5092695;28;20048;-80
2022/07/13 07:15:06;;;;;;;3.00;2.42;;;;;;;26.98;54.87;101849.19;5074478;28;20063;-79
2022/07/13 07:17:42;;;;;;;4.20;2.60;;;;;;;26.99;54.70;101842.72;5092510;28;20051;-80
2022/07/13 07:20:10;;;;;;;3.50;2.65;;;;;;;27.00;54.70;101849.84;5093606;28;20044;-81
2022/07/13 07:22:38;;;;;;;4.00;2.83;;;;;;;27.01;54.59;101848.00;5094774;28;20051;-80
2022/07/13 07:25:07;;;;;;;4.13;2.38;;;;;;;27.01;54.79;101848.00;5088498;28;20070;-79
2022/07/13 07:27:35;;;;;;;4.15;2.70;;;;;;;27.01;54.87;101843.41;5095697;28;20139;-80
2022/07/13 07:30:03;;;;;;;3.88;2.40;;;;;;;27.00;54.46;101844.44;5097477;28;20377;-83
2022/07/13 07:32:30;;;;;;;5.10;2.95;;;;;;;27.00;54.31;101841.72;5096099;28;20480;-82
2022/07/13 07:34:58;;;;;;;3.42;2.35;;;;;;;27.00;54.31;101843.56;5096745;28;20049;-83
2022/07/13 07:37:26;;;;;;;9.30;2.50;;;;;;;26.99;54.44;101839.16;5096878;28;20047;-83
2022/07/13 07:39:53;;;;;;;4.60;2.88;;;;;;;26.98;53.63;101843.75;5097148;28;20068;-81
2022/07/13 07:42:21;;;;;;;5.88;2.35;;;;;;;26.98;53.80;101846.47;5097014;28;20480;-82
2022/07/13 07:44:49;;;;;;;5.30;2.72;;;;;;;26.98;53.67;101834.72;5097397;28;20048;-81
2022/07/13 07:47:17;;;;;;;3.72;2.58;;;;;;;26.97;53.94;101833.00;5095771;28;20098;-79
2022/07/13 07:49:45;;;;;;;4.90;2.83;;;;;;;26.95;53.61;101833.19;5096790;28;20044;-81
2022/07/13 07:52:12;;;;;;;5.78;2.72;;;;;;;26.95;53.59;101829.63;5095875;28;20051;-82
2022/07/13 07:55:00;;;;;;;3.65;2.80;;;;;;;26.96;52.95;101828.59;5095906;28;20048;-80
2022/07/13 07:57:29;;;;;;;4.30;2.90;;;;;;;26.96;52.81;101831.31;5096412;28;20044;-79
2022/07/13 07:59:57;;;;;;;4.47;2.63;;;;;;;26.97;52.62;101823.00;5097746;28;20106;-79
2022/07/13 08:02:25;;;;;;;6.32;3.05;;;;;;;26.99;52.59;101826.41;5098883;28;20483;-80
2022/07/13 08:04:52;;;;;;;4.75;2.72;;;;;;;27.00;52.97;101816.41;5097803;28;20051;-80
2022/07/13 08:07:20;;;;;;;3.65;2.55;;;;;;;27.02;52.65;101814.34;5094394;28;20052;-81
2022/07/13 08:09:47;;;;;;;4.03;2.72;;;;;;;27.03;52.64;101808.78;5096366;28;20044;-81
2022/07/13 08:12:15;;;;;;;5.78;3.03;;;;;;;27.05;52.61;101804.03;5095780;28;20051;-82
2022/07/13 08:14:42;;;;;;;4.55;2.80;;;;;;;27.06;52.46;101796.72;5096116;28;20142;-80
2022/07/13 08:17:10;;;;;;;4.30;2.88;;;;;;;27.07;52.25;101803.88;5096016;28;20491;-81
2022/07/13 08:19:37;;;;;;;5.10;2.85;;;;;;;27.07;51.94;101801.16;5094884;28;20043;-81
2022/07/13 08:22:07;;;;;;;3.63;2.38;;;;;;;27.09;51.75;101799.13;5095447;28;20059;-81
2022/07/13 08:24:35;;;;;;;3.67;2.85;;;;;;;27.08;51.40;101801.00;5095199;28;20055;-81
2022/07/13 08:27:03;;;;;;;4.68;2.60;;;;;;;27.10;51.27;101800.84;5075987;28;20426;-81
2022/07/13 08:29:30;;;;;;;5.85;2.67;;;;;;;27.13;49.89;101794.25;5074868;28;20049;-82
2022/07/13 08:31:58;;;;;;;3.47;2.53;;;;;;;27.15;50.10;101794.97;5075126;28;20051;-82
2022/07/13 08:40:06;;;;;;;3.78;2.45;;;;;;;27.15;49.22;101782.22;5074264;28;20052;-83
2022/07/13 08:42:35;;;;;;;3.15;2.33;;;;;;;27.17;49.55;101776.63;5074462;28;20044;-82
2022/07/13 08:45:04;;;;;;;2.95;2.42;;;;;;;27.16;49.77;101778.50;5075727;28;20476;-82
2022/07/13 08:47:32;;;;;;;3.80;2.47;;;;;;;27.15;49.67;101773.22;5074193;28;20120;-85
2022/07/13 08:50:04;;;;;;;3.20;2.40;;;;;;;27.16;49.71;101778.50;5074764;28;20040;-83
2022/07/13 08:52:33;;;;;;;2.75;2.20;;;;;;;27.16;50.28;101783.91;5075063;28;20075;-81
2022/07/13 08:55:03;;;;;;;4.38;2.22;;;;;;;27.17;50.09;101780.19;5075441;28;20052;-82
2022/07/13 08:57:36;;;;;;;4.40;2.42;;;;;;;27.17;49.85;101772.03;5075887;28;20041;-81
2022/07/13 09:00:07;;;;;;;3.40;2.30;;;;;;;27.17;49.16;101769.31;5093469;28;20052;-84
2022/07/13 09:02:35;;;;;;;4.70;2.47;;;;;;;27.20;48.83;101776.31;5094228;28;20044;-81
2022/07/13 09:05:07;;;;;;;2.50;2.20;;;;;;;27.22;49.04;101774.25;5094666;28;20048;-81
2022/07/13 09:07:35;;;;;;;4.90;2.50;;;;;;;27.24;48.50;101774.97;5094751;28;20044;-89
2022/07/13 09:10:04;;;;;;;3.88;2.22;;;;;;;27.25;48.02;101773.94;5092936;28;20484;-80
2022/07/13 09:12:35;;;;;;;3.45;2.20;;;;;;;27.26;47.10;101770.19;5093844;28;20048;-82
2022/07/13 09:15:08;;;;;;;4.15;1.98;;;;;;;27.29;45.32;101778.03;5094473;28;20400;-80
2022/07/13 09:17:43;;;;;;;4.20;1.90;;;;;;;27.33;46.31;101772.13;5093063;28;20499;-79
2022/07/13 09:20:10;;;;;;;4.13;2.03;;;;;;;27.34;46.39;101772.97;5092149;28;20514;-79
2022/07/13 09:22:48;;;;;;;2.83;2.10;;;;;;;27.34;46.97;101767.53;5092841;28;20048;-81
2022/07/13 09:25:37;;;;;;;6.60;2.45;;;;;;;27.35;47.12;101763.81;5094495;28;20048;-82
2022/07/13 09:28:10;;;;;;;3.33;1.98;;;;;;;27.34;47.00;101772.97;5073673;28;20052;-87
2022/07/13 09:30:42;;;;;;;3.17;1.88;;;;;;;27.34;47.28;101768.38;5072258;28;20047;-79
2022/07/13 09:33:09;;;;;;;3.80;2.00;;;;;;;27.35;47.60;101763.81;5073886;28;20045;-84
2022/07/13 09:35:51;;;;;;;3.75;2.50;;;;;;;27.34;46.85;101752.06;5073835;28;20044;-82
2022/07/13 09:38:42;;;;;;;3.30;1.73;;;;;;;27.41;43.71;101762.31;5073874;28;20055;-83
2022/07/13 09:41:19;;;;;;;5.00;1.90;;;;;;;27.49;42.34;101757.75;5076985;28;20044;-80
2022/07/13 09:46:54;;;;;;;3.67;1.98;;;;;;;27.51;44.28;101752.16;5090906;28;20059;-82
2022/07/13 09:49:41;;;;;;;4.72;2.35;;;;;;;27.53;43.45;101750.13;5093669;28;20499;-79
2022/07/13 09:52:11;;;;;;;5.78;2.15;;;;;;;27.55;42.71;101750.81;5092386;28;20399;-80
2022/07/13 09:54:41;;;;;;;3.03;1.92;;;;;;;27.57;43.48;101746.91;5093721;28;20059;-82
2022/07/13 09:57:12;;;;;;;3.88;1.95;;;;;;;27.60;42.83;101743.84;5092651;28;20048;-84
2022/07/13 09:59:42;;;;;;;2.33;1.70;;;;;;;27.62;42.75;101740.97;5094963;28;20047;-82
2022/07/13 10:02:11;;;;;;;3.40;1.95;;;;;;;27.66;41.63;101742.31;5094111;28;20048;-84
2022/07/13 10:04:40;;;;;;;2.80;1.73;;;;;;;27.68;42.44;101745.75;5094504;28;20052;-90
2022/07/13 10:07:18;;;;;;;2.47;2.03;;;;;;;27.67;43.28;101735.00;5092276;28;20380;-89
2022/07/13 10:09:49;;;;;;;4.97;2.35;;;;;;;27.65;43.62;101737.06;5093492;28;20148;-83
2022/07/13 10:12:17;;;;;;;3.13;1.80;;;;;;;27.62;43.81;101735.50;5093373;28;20047;-83
2022/07/13 10:14:46;;;;;;;6.80;2.10;;;;;;;27.60;44.36;101741.13;5093524;28;20070;-83
2022/07/13 10:17:21;;;;;;;3.08;1.90;;;;;;;27.60;44.08;101740.28;5093061;28;20052;-83
2022/07/13 10:20:02;;;;;;;3.80;2.10;;;;;;;27.60;43.96;101740.28;5094796;28;20094;-82
2022/07/13 10:22:34;;;;;;;2.75;1.90;;;;;;;27.58;44.58;101732.28;5093112;28;20036;-86
2022/07/13 10:25:03;;;;;;;2.80;1.80;;;;;;;27.57;44.40;101738.72;5076190;28;20058;-86
2022/07/13 10:27:31;;;;;;;2.58;1.48;;;;;;;27.56;44.34;101730.75;5092679;28;20048;-86
2022/07/13 10:30:07;;;;;;;3.60;1.90;;;;;;;27.56;44.26;101742.47;5083114;28;20044;-85
2022/07/13 10:32:40;;;;;;;2.03;1.60;;;;;;;27.57;43.16;101740.59;5091672;28;20051;-87
2022/07/13 10:35:10;;;;;;;4.70;1.95;;;;;;;27.59;44.23;101741.31;5075150;28;20055;-83
2022/07/13 10:38:03;;;;;;;5.25;2.30;;;;;;;27.57;44.20;101738.72;5092730;28;20507;-78
2022/07/13 10:40:32;;;;;;;4.50;1.77;;;;;;;27.56;43.81;101737.03;5012271;28;20065;-87
2022/07/13 10:43:01;;;;;;;3.88;1.77;;;;;;;27.57;44.39;101738.72;5012153;28;20053;-81
2022/07/13 10:45:38;;;;;;;5.75;2.00;;;;;;;27.57;44.37;101729.72;4978502;28;20053;-85
2022/07/13 10:48:25;;;;;;;3.22;1.92;;;;;;;27.57;44.07;101736.00;4994935;28;20049;-83
2022/07/13 10:51:02;;;;;;;4.22;2.28;;;;;;;27.58;44.01;101734.16;4993009;28;20054;-81
2022/07/13 10:53:39;;;;;;;7.88;2.10;;;;;;;27.57;44.80;101727.84;5011786;28;20046;-83
2022/07/13 10:56:17;;;;;;;5.40;2.40;;;;;;;27.57;44.73;101718.84;5012882;28;20061;-77
2022/07/13 10:58:46;;;;;;;3.28;1.92;;;;;;;27.59;44.45;101723.13;5014373;28;20066;-79
2022/07/13 11:01:42;;;;;;;3.00;2.00;;;;;;;27.66;42.77;101714.28;5015342;28;20049;-80
2022/07/13 11:04:16;;;;;;;2.65;2.00;;;;;;;27.66;43.59;101717.84;5015278;28;20062;-75
2022/07/13 11:07:07;;;;;;;4.78;1.55;;;;;;;27.66;42.82;101717.84;4999148;28;20093;-78
2022/07/13 11:09:35;;;;;;;5.93;2.00;;;;;;;27.66;43.26;101715.13;4987221;28;20069;-79
2022/07/13 11:12:21;;;;;;;2.53;1.70;;;;;;;27.64;43.43;101719.91;4998474;28;20054;-81
2022/07/13 11:14:51;;;;;;;2.55;1.50;;;;;;;27.66;42.53;101720.56;5014814;28;20057;-84
2022/07/13 11:17:20;;;;;;;4.40;2.35;;;;;;;27.70;42.22;101712.94;5041770;28;20503;-80
2022/07/13 11:19:49;;;;;;;3.92;2.20;;;;;;;27.71;43.04;101712.78;5093990;28;20056;-80
2022/07/13 11:22:17;;;;;;;3.10;1.90;;;;;;;27.70;43.31;101707.50;5096464;28;20040;-80
2022/07/13 11:25:13;;;;;;;2.83;1.88;;;;;;;27.71;42.36;101714.63;5096430;28;20043;-82
2022/07/13 11:27:54;;;;;;;2.78;1.90;;;;;;;27.83;40.85;101710.59;5095783;28;20047;-85
2022/07/13 11:30:35;;;;;;;3.20;1.88;;;;;;;27.83;42.14;101702.44;5070848;28;20055;-79
2022/07/13 11:33:08;;;;;;;2.40;1.60;;;;;;;27.82;43.21;101700.75;5076075;28;20048;-79
2022/07/13 11:35:37;;;;;;;3.22;2.00;;;;;;;27.79;45.18;101701.94;5074474;28;20475;-78
2022/07/13 11:38:07;;;;;;;3.55;1.95;;;;;;;27.77;42.52;101703.13;5090452;28;20504;-78
2022/07/13 11:40:34;;;;;;;3.35;1.90;;;;;;;27.75;46.80;101707.88;5075717;28;20052;-79
2022/07/13 11:43:02;;;;;;;3.33;1.70;;;;;;;27.71;47.14;101699.19;5087634;28;20040;-79
2022/07/13 11:45:32;;;;;;;4.78;2.45;;;;;;;27.72;40.74;101690.00;5095790;28;20059;-77